sensor_id;sensor_type;location;lat;lon;timestamp;temperature;humidity
38464;DHT22;24243;51.956;5.902;2023-09-18T00:01:53;24.40;62.20
38464;DHT22;24243;51.956;5.902;2023-09-18T00:04:19;24.40;62.10
38464;DHT22;24243;51.956;5.902;2023-09-18T00:06:44;24.40;62.10
38464;DHT22;24243;51.956;5.902;2023-09-18T00:09:10;24.40;62.20
38464;DHT22;24243;51.956;5.902;2023-09-18T00:11:39;24.40;62.10
38464;DHT22;24243;51.956;5.902;2023-09-18T00:14:04;24.40;62.10
38464;DHT22;24243;51.956;5.902;2023-09-18T00:16:30;24.40;62.10
38464;DHT22;24243;51.956;5.902;2023-09-18T00:18:57;24.40;62.10
38464;DHT22;24243;51.956;5.902;2023-09-18T00:21:22;24.50;62.20
38464;DHT22;24243;51.956;5.902;2023-09-18T00:23:51;24.40;62.10
38464;DHT22;24243;51.956;5.902;2023-09-18T00:26:16;24.40;62.10
38464;DHT22;24243;51.956;5.902;2023-09-18T00:28:42;24.40;62.10
38464;DHT22;24243;51.956;5.902;2023-09-18T00:31:08;24.40;62.10
38464;DHT22;24243;51.956;5.902;2023-09-18T00:33:33;24.40;62.00
38464;DHT22;24243;51.956;5.902;2023-09-18T00:35:59;24.40;62.00
38464;DHT22;24243;51.956;5.902;2023-09-18T00:38:25;24.40;62.00
38464;DHT22;24243;51.956;5.902;2023-09-18T00:40:50;24.40;62.00
38464;DHT22;24243;51.956;5.902;2023-09-18T00:43:16;24.40;62.00
38464;DHT22;24243;51.956;5.902;2023-09-18T00:45:44;24.40;62.00
38464;DHT22;24243;51.956;5.902;2023-09-18T00:48:10;24.40;62.00
38464;DHT22;24243;51.956;5.902;2023-09-18T00:50:36;24.40;62.00
38464;DHT22;24243;51.956;5.902;2023-09-18T00:53:02;24.40;62.00
38464;DHT22;24243;51.956;5.902;2023-09-18T00:55:28;24.40;62.00
38464;DHT22;24243;51.956;5.902;2023-09-18T00:57:56;24.40;62.00
38464;DHT22;24243;51.956;5.902;2023-09-18T01:00:22;24.40;62.00
38464;DHT22;24243;51.956;5.902;2023-09-18T01:02:47;24.40;62.00
38464;DHT22;24243;51.956;5.902;2023-09-18T01:05:13;24.40;62.00
38464;DHT22;24243;51.956;5.902;2023-09-18T01:07:42;24.40;61.90
38464;DHT22;24243;51.956;5.902;2023-09-18T01:10:07;24.40;61.90
38464;DHT22;24243;51.956;5.902;2023-09-18T01:13:08;24.40;61.90
38464;DHT22;24243;51.956;5.902;2023-09-18T01:15:33;24.40;61.90
38464;DHT22;24243;51.956;5.902;2023-09-18T01:18:00;24.40;62.60
38464;DHT22;24243;51.956;5.902;2023-09-18T01:20:26;24.40;61.90
38464;DHT22;24243;51.956;5.902;2023-09-18T01:22:52;24.40;61.90
38464;DHT22;24243;51.956;5.902;2023-09-18T01:25:18;24.40;61.90
38464;DHT22;24243;51.956;5.902;2023-09-18T01:27:44;24.40;61.90
38464;DHT22;24243;51.956;5.902;2023-09-18T01:30:09;24.40;61.90
38464;DHT22;24243;51.956;5.902;2023-09-18T01:32:35;24.40;61.90
38464;DHT22;24243;51.956;5.902;2023-09-18T01:35:02;24.40;61.90
38464;DHT22;24243;51.956;5.902;2023-09-18T01:37:31;24.40;61.80
38464;DHT22;24243;51.956;5.902;2023-09-18T01:39:56;24.40;61.90
38464;DHT22;24243;51.956;5.902;2023-09-18T01:42:26;24.40;61.80
38464;DHT22;24243;51.956;5.902;2023-09-18T01:44:52;24.40;61.90
38464;DHT22;24243;51.956;5.902;2023-09-18T01:47:18;24.40;61.80
38464;DHT22;24243;51.956;5.902;2023-09-18T01:49:44;24.40;61.80
38464;DHT22;24243;51.956;5.902;2023-09-18T01:52:11;24.40;61.80
38464;DHT22;24243;51.956;5.902;2023-09-18T01:54:37;24.40;61.80
38464;DHT22;24243;51.956;5.902;2023-09-18T01:57:02;24.40;61.80
38464;DHT22;24243;51.956;5.902;2023-09-18T01:59:28;24.40;61.80
38464;DHT22;24243;51.956;5.902;2023-09-18T02:01:54;24.40;61.80
38464;DHT22;24243;51.956;5.902;2023-09-18T02:04:20;24.40;61.80
38464;DHT22;24243;51.956;5.902;2023-09-18T02:06:46;24.40;61.80
38464;DHT22;24243;51.956;5.902;2023-09-18T02:09:12;24.40;61.80
38464;DHT22;24243;51.956;5.902;2023-09-18T02:11:38;24.40;61.80
38464;DHT22;24243;51.956;5.902;2023-09-18T02:14:04;24.40;61.80
38464;DHT22;24243;51.956;5.902;2023-09-18T02:16:33;24.40;61.80
38464;DHT22;24243;51.956;5.902;2023-09-18T02:18:59;24.40;61.80
38464;DHT22;24243;51.956;5.902;2023-09-18T02:21:25;24.40;61.70
38464;DHT22;24243;51.956;5.902;2023-09-18T02:23:51;24.40;61.70
38464;DHT22;24243;51.956;5.902;2023-09-18T02:26:20;24.40;61.70
38464;DHT22;24243;51.956;5.902;2023-09-18T02:28:46;24.40;61.70
38464;DHT22;24243;51.956;5.902;2023-09-18T02:31:12;24.40;61.70
38464;DHT22;24243;51.956;5.902;2023-09-18T02:33:38;24.40;61.70
38464;DHT22;24243;51.956;5.902;2023-09-18T02:36:04;24.40;61.70
38464;DHT22;24243;51.956;5.902;2023-09-18T02:38:29;24.40;61.70
38464;DHT22;24243;51.956;5.902;2023-09-18T02:40:55;24.40;61.70
38464;DHT22;24243;51.956;5.902;2023-09-18T02:43:22;24.40;61.70
38464;DHT22;24243;51.956;5.902;2023-09-18T02:45:48;24.40;61.60
38464;DHT22;24243;51.956;5.902;2023-09-18T02:48:13;24.40;61.60
38464;DHT22;24243;51.956;5.902;2023-09-18T02:50:39;24.40;61.70
38464;DHT22;24243;51.956;5.902;2023-09-18T02:53:05;24.40;61.70
38464;DHT22;24243;51.956;5.902;2023-09-18T02:55:31;24.40;61.60
38464;DHT22;24243;51.956;5.902;2023-09-18T02:57:57;24.40;61.60
38464;DHT22;24243;51.956;5.902;2023-09-18T03:00:22;24.40;61.60
38464;DHT22;24243;51.956;5.902;2023-09-18T03:02:48;24.40;61.70
38464;DHT22;24243;51.956;5.902;2023-09-18T03:05:13;24.40;61.60
38464;DHT22;24243;51.956;5.902;2023-09-18T03:07:39;24.40;61.60
38464;DHT22;24243;51.956;5.902;2023-09-18T03:10:05;24.40;61.60
38464;DHT22;24243;51.956;5.902;2023-09-18T03:12:30;24.40;61.60
38464;DHT22;24243;51.956;5.902;2023-09-18T03:14:57;24.40;61.60
38464;DHT22;24243;51.956;5.902;2023-09-18T03:17:22;24.40;61.60
38464;DHT22;24243;51.956;5.902;2023-09-18T03:19:48;24.40;61.60
38464;DHT22;24243;51.956;5.902;2023-09-18T03:22:15;24.40;61.60
38464;DHT22;24243;51.956;5.902;2023-09-18T03:24:40;24.40;61.60
38464;DHT22;24243;51.956;5.902;2023-09-18T03:27:06;24.40;61.60
38464;DHT22;24243;51.956;5.902;2023-09-18T03:29:32;24.40;61.60
38464;DHT22;24243;51.956;5.902;2023-09-18T03:31:57;24.40;61.60
38464;DHT22;24243;51.956;5.902;2023-09-18T03:34:24;24.40;61.60
38464;DHT22;24243;51.956;5.902;2023-09-18T03:36:53;24.40;61.60
38464;DHT22;24243;51.956;5.902;2023-09-18T03:39:19;24.40;61.60
38464;DHT22;24243;51.956;5.902;2023-09-18T03:41:45;24.40;61.60
38464;DHT22;24243;51.956;5.902;2023-09-18T03:44:11;24.40;61.60
38464;DHT22;24243;51.956;5.902;2023-09-18T03:46:36;24.40;61.60
38464;DHT22;24243;51.956;5.902;2023-09-18T03:49:02;24.40;61.60
38464;DHT22;24243;51.956;5.902;2023-09-18T03:51:28;24.40;61.60
38464;DHT22;24243;51.956;5.902;2023-09-18T03:53:55;24.40;61.60
38464;DHT22;24243;51.956;5.902;2023-09-18T03:56:21;24.40;61.60
38464;DHT22;24243;51.956;5.902;2023-09-18T03:58:47;24.40;61.50
38464;DHT22;24243;51.956;5.902;2023-09-18T04:01:17;24.40;61.60
38464;DHT22;24243;51.956;5.902;2023-09-18T04:03:43;24.40;61.50
38464;DHT22;24243;51.956;5.902;2023-09-18T04:06:09;24.40;61.50
38464;DHT22;24243;51.956;5.902;2023-09-18T04:08:34;24.40;61.50
38464;DHT22;24243;51.956;5.902;2023-09-18T04:11:00;24.40;61.50
38464;DHT22;24243;51.956;5.902;2023-09-18T04:13:26;24.40;61.50
38464;DHT22;24243;51.956;5.902;2023-09-18T04:15:52;24.40;61.50
38464;DHT22;24243;51.956;5.902;2023-09-18T04:18:25;24.40;61.50
38464;DHT22;24243;51.956;5.902;2023-09-18T04:20:50;24.40;61.50
38464;DHT22;24243;51.956;5.902;2023-09-18T04:23:18;24.40;61.50
38464;DHT22;24243;51.956;5.902;2023-09-18T04:25:45;24.40;61.50
38464;DHT22;24243;51.956;5.902;2023-09-18T04:28:12;24.40;61.50
38464;DHT22;24243;51.956;5.902;2023-09-18T04:30:38;24.40;61.50
38464;DHT22;24243;51.956;5.902;2023-09-18T04:33:03;24.40;61.50
38464;DHT22;24243;51.956;5.902;2023-09-18T04:35:29;24.40;61.50
38464;DHT22;24243;51.956;5.902;2023-09-18T04:37:56;24.40;61.60
38464;DHT22;24243;51.956;5.902;2023-09-18T04:40:22;24.40;61.50
38464;DHT22;24243;51.956;5.902;2023-09-18T04:42:49;24.40;61.50
38464;DHT22;24243;51.956;5.902;2023-09-18T04:45:14;24.40;61.50
38464;DHT22;24243;51.956;5.902;2023-09-18T04:47:41;24.40;61.50
38464;DHT22;24243;51.956;5.902;2023-09-18T04:50:07;24.40;61.60
38464;DHT22;24243;51.956;5.902;2023-09-18T04:52:34;24.40;61.50
38464;DHT22;24243;51.956;5.902;2023-09-18T04:55:00;24.40;61.60
38464;DHT22;24243;51.956;5.902;2023-09-18T04:57:25;24.40;61.50
38464;DHT22;24243;51.956;5.902;2023-09-18T04:59:51;24.40;61.60
38464;DHT22;24243;51.956;5.902;2023-09-18T05:02:17;24.40;61.50
38464;DHT22;24243;51.956;5.902;2023-09-18T05:04:42;24.40;62.20
38464;DHT22;24243;51.956;5.902;2023-09-18T05:07:08;24.40;61.50
38464;DHT22;24243;51.956;5.902;2023-09-18T05:09:39;24.40;61.60
38464;DHT22;24243;51.956;5.902;2023-09-18T05:12:06;24.40;61.50
38464;DHT22;24243;51.956;5.902;2023-09-18T05:14:34;24.40;61.60
38464;DHT22;24243;51.956;5.902;2023-09-18T05:16:59;24.40;61.60
38464;DHT22;24243;51.956;5.902;2023-09-18T05:19:25;24.40;61.60
38464;DHT22;24243;51.956;5.902;2023-09-18T05:21:51;24.40;61.60
38464;DHT22;24243;51.956;5.902;2023-09-18T05:24:16;24.40;61.60
38464;DHT22;24243;51.956;5.902;2023-09-18T05:26:42;24.40;61.60
38464;DHT22;24243;51.956;5.902;2023-09-18T05:29:07;24.40;61.60
38464;DHT22;24243;51.956;5.902;2023-09-18T05:31:35;24.40;61.60
38464;DHT22;24243;51.956;5.902;2023-09-18T05:34:01;24.40;61.60
38464;DHT22;24243;51.956;5.902;2023-09-18T05:36:27;24.30;61.50
38464;DHT22;24243;51.956;5.902;2023-09-18T05:38:52;24.40;61.60
38464;DHT22;24243;51.956;5.902;2023-09-18T05:41:18;24.40;61.60
38464;DHT22;24243;51.956;5.902;2023-09-18T05:43:44;24.40;61.60
38464;DHT22;24243;51.956;5.902;2023-09-18T05:46:09;24.40;61.60
38464;DHT22;24243;51.956;5.902;2023-09-18T05:48:35;24.40;61.60
38464;DHT22;24243;51.956;5.902;2023-09-18T05:51:00;24.40;61.60
38464;DHT22;24243;51.956;5.902;2023-09-18T05:53:26;24.40;61.60
38464;DHT22;24243;51.956;5.902;2023-09-18T05:55:52;24.40;61.60
38464;DHT22;24243;51.956;5.902;2023-09-18T05:58:17;24.40;61.60
38464;DHT22;24243;51.956;5.902;2023-09-18T06:00:46;24.40;61.60
38464;DHT22;24243;51.956;5.902;2023-09-18T06:03:12;24.40;61.60
38464;DHT22;24243;51.956;5.902;2023-09-18T06:05:37;24.40;61.60
38464;DHT22;24243;51.956;5.902;2023-09-18T06:08:03;24.40;61.60
38464;DHT22;24243;51.956;5.902;2023-09-18T06:10:29;24.40;61.70
38464;DHT22;24243;51.956;5.902;2023-09-18T06:12:54;24.40;61.60
38464;DHT22;24243;51.956;5.902;2023-09-18T06:15:20;24.40;61.70
38464;DHT22;24243;51.956;5.902;2023-09-18T06:17:46;24.40;61.70
38464;DHT22;24243;51.956;5.902;2023-09-18T06:20:12;24.40;61.70
38464;DHT22;24243;51.956;5.902;2023-09-18T06:22:38;24.40;61.70
38464;DHT22;24243;51.956;5.902;2023-09-18T06:25:04;24.40;61.70
38464;DHT22;24243;51.956;5.902;2023-09-18T06:27:30;24.40;61.70
38464;DHT22;24243;51.956;5.902;2023-09-18T06:29:57;24.40;61.80
38464;DHT22;24243;51.956;5.902;2023-09-18T06:32:23;24.40;61.70
38464;DHT22;24243;51.956;5.902;2023-09-18T06:34:49;24.40;61.70
38464;DHT22;24243;51.956;5.902;2023-09-18T06:37:14;24.40;61.70
38464;DHT22;24243;51.956;5.902;2023-09-18T06:39:41;24.40;61.70
38464;DHT22;24243;51.956;5.902;2023-09-18T06:42:06;24.40;61.70
38464;DHT22;24243;51.956;5.902;2023-09-18T06:44:32;24.40;61.70
38464;DHT22;24243;51.956;5.902;2023-09-18T06:46:58;24.40;61.70
38464;DHT22;24243;51.956;5.902;2023-09-18T06:49:23;24.40;61.70
38464;DHT22;24243;51.956;5.902;2023-09-18T06:51:49;24.40;61.70
38464;DHT22;24243;51.956;5.902;2023-09-18T06:54:15;24.40;61.70
38464;DHT22;24243;51.956;5.902;2023-09-18T06:56:40;24.40;61.70
38464;DHT22;24243;51.956;5.902;2023-09-18T06:59:07;24.40;61.70
38464;DHT22;24243;51.956;5.902;2023-09-18T07:01:32;24.40;61.70
38464;DHT22;24243;51.956;5.902;2023-09-18T07:03:58;24.40;61.70
38464;DHT22;24243;51.956;5.902;2023-09-18T07:06:25;24.40;61.80
38464;DHT22;24243;51.956;5.902;2023-09-18T07:08:50;24.40;61.70
38464;DHT22;24243;51.956;5.902;2023-09-18T07:11:17;24.40;61.80
38464;DHT22;24243;51.956;5.902;2023-09-18T07:13:43;24.40;61.70
38464;DHT22;24243;51.956;5.902;2023-09-18T07:16:11;24.40;61.80
38464;DHT22;24243;51.956;5.902;2023-09-18T07:18:37;24.40;61.70
38464;DHT22;24243;51.956;5.902;2023-09-18T07:21:02;24.40;61.70
38464;DHT22;24243;51.956;5.902;2023-09-18T07:23:28;24.40;61.70
38464;DHT22;24243;51.956;5.902;2023-09-18T07:25:54;24.40;61.70
38464;DHT22;24243;51.956;5.902;2023-09-18T07:28:19;24.40;61.80
38464;DHT22;24243;51.956;5.902;2023-09-18T07:30:45;24.40;61.70
38464;DHT22;24243;51.956;5.902;2023-09-18T07:33:12;24.40;61.70
38464;DHT22;24243;51.956;5.902;2023-09-18T07:35:37;24.40;61.70
38464;DHT22;24243;51.956;5.902;2023-09-18T07:38:03;24.40;61.70
38464;DHT22;24243;51.956;5.902;2023-09-18T07:40:29;24.40;61.70
38464;DHT22;24243;51.956;5.902;2023-09-18T07:42:55;24.40;61.70
38464;DHT22;24243;51.956;5.902;2023-09-18T07:45:20;24.40;61.70
38464;DHT22;24243;51.956;5.902;2023-09-18T07:47:46;24.40;61.70
38464;DHT22;24243;51.956;5.902;2023-09-18T07:50:12;24.40;61.70
38464;DHT22;24243;51.956;5.902;2023-09-18T07:52:37;24.50;61.80
38464;DHT22;24243;51.956;5.902;2023-09-18T07:55:03;24.40;61.70
38464;DHT22;24243;51.956;5.902;2023-09-18T07:57:29;24.40;61.80
38464;DHT22;24243;51.956;5.902;2023-09-18T07:59:57;24.40;61.80
38464;DHT22;24243;51.956;5.902;2023-09-18T08:02:23;24.40;61.70
38464;DHT22;24243;51.956;5.902;2023-09-18T08:04:48;24.40;61.80
38464;DHT22;24243;51.956;5.902;2023-09-18T08:07:15;24.40;61.80
38464;DHT22;24243;51.956;5.902;2023-09-18T08:09:41;24.40;61.80
38464;DHT22;24243;51.956;5.902;2023-09-18T08:12:07;24.50;62.50
38464;DHT22;24243;51.956;5.902;2023-09-18T08:14:34;24.40;61.80
38464;DHT22;24243;51.956;5.902;2023-09-18T08:17:01;24.40;61.80
38464;DHT22;24243;51.956;5.902;2023-09-18T08:19:29;24.40;61.80
38464;DHT22;24243;51.956;5.902;2023-09-18T08:21:55;24.40;61.80
38464;DHT22;24243;51.956;5.902;2023-09-18T08:24:27;24.50;61.90
38464;DHT22;24243;51.956;5.902;2023-09-18T08:26:52;24.50;61.80
38464;DHT22;24243;51.956;5.902;2023-09-18T08:29:19;24.50;61.90
38464;DHT22;24243;51.956;5.902;2023-09-18T08:31:45;24.50;61.80
38464;DHT22;24243;51.956;5.902;2023-09-18T08:34:10;24.50;61.80
38464;DHT22;24243;51.956;5.902;2023-09-18T08:36:36;24.50;61.80
38464;DHT22;24243;51.956;5.902;2023-09-18T08:39:02;24.50;61.80
38464;DHT22;24243;51.956;5.902;2023-09-18T08:41:31;24.50;61.80
38464;DHT22;24243;51.956;5.902;2023-09-18T08:44:01;24.50;61.80
38464;DHT22;24243;51.956;5.902;2023-09-18T08:46:29;24.50;61.80
38464;DHT22;24243;51.956;5.902;2023-09-18T08:48:54;24.60;61.90
38464;DHT22;24243;51.956;5.902;2023-09-18T08:51:21;24.60;61.90
38464;DHT22;24243;51.956;5.902;2023-09-18T08:53:47;24.60;61.80
38464;DHT22;24243;51.956;5.902;2023-09-18T08:56:13;24.60;61.80
38464;DHT22;24243;51.956;5.902;2023-09-18T08:58:39;24.60;61.80
38464;DHT22;24243;51.956;5.902;2023-09-18T09:01:11;24.60;61.80
38464;DHT22;24243;51.956;5.902;2023-09-18T09:03:37;24.60;61.80
38464;DHT22;24243;51.956;5.902;2023-09-18T09:06:02;24.60;61.80
38464;DHT22;24243;51.956;5.902;2023-09-18T09:08:28;24.60;61.80
38464;DHT22;24243;51.956;5.902;2023-09-18T09:10:54;24.70;61.90
38464;DHT22;24243;51.956;5.902;2023-09-18T09:13:20;24.60;61.80
38464;DHT22;24243;51.956;5.902;2023-09-18T09:15:52;24.70;61.90
38464;DHT22;24243;51.956;5.902;2023-09-18T09:18:19;24.70;61.90
38464;DHT22;24243;51.956;5.902;2023-09-18T09:20:58;24.70;61.90
38464;DHT22;24243;51.956;5.902;2023-09-18T09:23:25;24.70;61.90
38464;DHT22;24243;51.956;5.902;2023-09-18T09:25:51;24.70;61.90
38464;DHT22;24243;51.956;5.902;2023-09-18T09:28:25;24.70;61.90
38464;DHT22;24243;51.956;5.902;2023-09-18T09:30:55;24.70;61.80
38464;DHT22;24243;51.956;5.902;2023-09-18T09:33:26;24.70;61.90
38464;DHT22;24243;51.956;5.902;2023-09-18T09:35:52;24.70;61.90
38464;DHT22;24243;51.956;5.902;2023-09-18T09:38:17;24.70;61.90
38464;DHT22;24243;51.956;5.902;2023-09-18T09:40:45;24.70;61.90
38464;DHT22;24243;51.956;5.902;2023-09-18T09:43:11;24.80;61.90
38464;DHT22;24243;51.956;5.902;2023-09-18T09:45:38;24.80;61.90
38464;DHT22;24243;51.956;5.902;2023-09-18T09:48:05;24.70;61.90
38464;DHT22;24243;51.956;5.902;2023-09-18T09:50:32;24.80;61.90
38464;DHT22;24243;51.956;5.902;2023-09-18T09:52:58;24.80;61.90
38464;DHT22;24243;51.956;5.902;2023-09-18T09:55:30;24.90;62.00
38464;DHT22;24243;51.956;5.902;2023-09-18T09:57:58;24.90;61.90
38464;DHT22;24243;51.956;5.902;2023-09-18T10:00:32;24.90;61.90
38464;DHT22;24243;51.956;5.902;2023-09-18T10:03:03;24.90;61.90
38464;DHT22;24243;51.956;5.902;2023-09-18T10:05:30;24.90;61.90
38464;DHT22;24243;51.956;5.902;2023-09-18T10:07:57;25.00;61.90
38464;DHT22;24243;51.956;5.902;2023-09-18T10:10:25;25.00;61.90
38464;DHT22;24243;51.956;5.902;2023-09-18T10:12:51;25.00;61.90
38464;DHT22;24243;51.956;5.902;2023-09-18T10:15:19;25.10;62.00
38464;DHT22;24243;51.956;5.902;2023-09-18T10:17:45;25.10;62.00
38464;DHT22;24243;51.956;5.902;2023-09-18T10:20:14;25.10;61.90
38464;DHT22;24243;51.956;5.902;2023-09-18T10:22:46;25.10;61.90
38464;DHT22;24243;51.956;5.902;2023-09-18T10:25:17;25.10;61.90
38464;DHT22;24243;51.956;5.902;2023-09-18T10:27:49;25.10;61.90
38464;DHT22;24243;51.956;5.902;2023-09-18T10:30:18;25.10;61.90
38464;DHT22;24243;51.956;5.902;2023-09-18T10:32:44;25.20;62.00
38464;DHT22;24243;51.956;5.902;2023-09-18T10:35:13;25.20;62.00
38464;DHT22;24243;51.956;5.902;2023-09-18T10:37:39;25.10;62.00
38464;DHT22;24243;51.956;5.902;2023-09-18T10:40:07;25.10;62.00
38464;DHT22;24243;51.956;5.902;2023-09-18T10:42:37;25.20;62.00
38464;DHT22;24243;51.956;5.902;2023-09-18T10:45:03;25.10;62.00
38464;DHT22;24243;51.956;5.902;2023-09-18T10:47:30;25.10;62.00
38464;DHT22;24243;51.956;5.902;2023-09-18T10:49:56;25.10;62.00
38464;DHT22;24243;51.956;5.902;2023-09-18T10:52:21;25.20;62.00
38464;DHT22;24243;51.956;5.902;2023-09-18T10:54:47;25.20;62.00
38464;DHT22;24243;51.956;5.902;2023-09-18T10:57:12;25.20;62.00
38464;DHT22;24243;51.956;5.902;2023-09-18T10:59:47;25.10;61.90
38464;DHT22;24243;51.956;5.902;2023-09-18T11:02:14;25.20;62.00
38464;DHT22;24243;51.956;5.902;2023-09-18T11:04:41;25.20;62.00
38464;DHT22;24243;51.956;5.902;2023-09-18T11:07:07;25.20;62.00
38464;DHT22;24243;51.956;5.902;2023-09-18T11:09:40;25.20;62.00
38464;DHT22;24243;51.956;5.902;2023-09-18T11:12:06;25.20;61.90
38464;DHT22;24243;51.956;5.902;2023-09-18T11:14:45;25.20;61.90
38464;DHT22;24243;51.956;5.902;2023-09-18T11:20:04;25.20;61.90
38464;DHT22;24243;51.956;5.902;2023-09-18T11:22:38;25.20;61.80
38464;DHT22;24243;51.956;5.902;2023-09-18T11:25:46;25.20;61.80
38464;DHT22;24243;51.956;5.902;2023-09-18T11:27:53;25.20;61.80
38464;DHT22;24243;51.956;5.902;2023-09-18T11:30:21;25.30;61.90
38464;DHT22;24243;51.956;5.902;2023-09-18T11:32:49;25.30;61.90
38464;DHT22;24243;51.956;5.902;2023-09-18T11:35:14;25.30;61.90
38464;DHT22;24243;51.956;5.902;2023-09-18T11:37:43;25.30;61.80
38464;DHT22;24243;51.956;5.902;2023-09-18T11:40:28;25.30;61.90
38464;DHT22;24243;51.956;5.902;2023-09-18T11:45:41;25.30;61.80
38464;DHT22;24243;51.956;5.902;2023-09-18T11:48:07;25.30;61.80
38464;DHT22;24243;51.956;5.902;2023-09-18T11:50:36;25.30;61.80
38464;DHT22;24243;51.956;5.902;2023-09-18T11:53:02;25.30;61.80
38464;DHT22;24243;51.956;5.902;2023-09-18T11:55:28;25.30;61.80
38464;DHT22;24243;51.956;5.902;2023-09-18T11:57:54;25.30;61.80
38464;DHT22;24243;51.956;5.902;2023-09-18T12:00:23;25.30;61.80
38464;DHT22;24243;51.956;5.902;2023-09-18T12:02:52;25.30;61.80
38464;DHT22;24243;51.956;5.902;2023-09-18T12:05:18;25.30;61.70
38464;DHT22;24243;51.956;5.902;2023-09-18T12:07:44;25.30;61.70
38464;DHT22;24243;51.956;5.902;2023-09-18T12:10:11;25.30;61.70
38464;DHT22;24243;51.956;5.902;2023-09-18T12:12:37;25.30;61.70
38464;DHT22;24243;51.956;5.902;2023-09-18T12:15:03;25.40;61.80
38464;DHT22;24243;51.956;5.902;2023-09-18T12:17:29;25.40;61.80
38464;DHT22;24243;51.956;5.902;2023-09-18T12:19:54;25.40;61.70
38464;DHT22;24243;51.956;5.902;2023-09-18T12:22:26;25.40;61.70
38464;DHT22;24243;51.956;5.902;2023-09-18T12:24:52;25.40;61.70
38464;DHT22;24243;51.956;5.902;2023-09-18T12:27:18;25.40;61.70
38464;DHT22;24243;51.956;5.902;2023-09-18T12:29:44;25.40;61.70
38464;DHT22;24243;51.956;5.902;2023-09-18T12:32:10;25.40;61.70
38464;DHT22;24243;51.956;5.902;2023-09-18T12:34:40;25.40;61.70
38464;DHT22;24243;51.956;5.902;2023-09-18T12:37:06;25.40;61.70
38464;DHT22;24243;51.956;5.902;2023-09-18T12:39:35;25.40;61.70
38464;DHT22;24243;51.956;5.902;2023-09-18T12:42:00;25.40;61.60
38464;DHT22;24243;51.956;5.902;2023-09-18T12:44:26;25.40;61.60
38464;DHT22;24243;51.956;5.902;2023-09-18T12:46:51;25.40;61.60
38464;DHT22;24243;51.956;5.902;2023-09-18T12:49:18;25.40;61.60
38464;DHT22;24243;51.956;5.902;2023-09-18T12:51:44;25.40;61.60
38464;DHT22;24243;51.956;5.902;2023-09-18T12:54:09;25.40;61.60
38464;DHT22;24243;51.956;5.902;2023-09-18T12:56:40;25.50;61.60
38464;DHT22;24243;51.956;5.902;2023-09-18T12:59:06;25.40;61.60
38464;DHT22;24243;51.956;5.902;2023-09-18T13:01:32;25.40;61.60
38464;DHT22;24243;51.956;5.902;2023-09-18T13:03:57;25.40;61.60
38464;DHT22;24243;51.956;5.902;2023-09-18T13:06:31;25.40;61.50
38464;DHT22;24243;51.956;5.902;2023-09-18T13:09:14;25.40;61.50
38464;DHT22;24243;51.956;5.902;2023-09-18T13:12:01;25.50;61.60
38464;DHT22;24243;51.956;5.902;2023-09-18T13:14:26;25.50;61.60
38464;DHT22;24243;51.956;5.902;2023-09-18T13:16:52;25.40;61.50
38464;DHT22;24243;51.956;5.902;2023-09-18T13:19:18;25.50;61.60
38464;DHT22;24243;51.956;5.902;2023-09-18T13:21:50;25.50;61.50
38464;DHT22;24243;51.956;5.902;2023-09-18T13:24:29;25.50;61.50
38464;DHT22;24243;51.956;5.902;2023-09-18T13:26:54;25.50;61.50
38464;DHT22;24243;51.956;5.902;2023-09-18T13:29:21;25.50;61.50
38464;DHT22;24243;51.956;5.902;2023-09-18T13:31:47;25.50;61.50
38464;DHT22;24243;51.956;5.902;2023-09-18T13:34:12;25.50;61.50
38464;DHT22;24243;51.956;5.902;2023-09-18T13:36:38;25.40;61.40
38464;DHT22;24243;51.956;5.902;2023-09-18T13:39:03;25.50;61.50
38464;DHT22;24243;51.956;5.902;2023-09-18T13:41:29;25.50;61.40
38464;DHT22;24243;51.956;5.902;2023-09-18T13:43:56;25.50;61.40
38464;DHT22;24243;51.956;5.902;2023-09-18T13:46:22;25.40;61.30
38464;DHT22;24243;51.956;5.902;2023-09-18T13:48:49;25.50;61.30
38464;DHT22;24243;51.956;5.902;2023-09-18T13:51:14;25.50;61.20
38464;DHT22;24243;51.956;5.902;2023-09-18T13:53:40;25.50;61.10
38464;DHT22;24243;51.956;5.902;2023-09-18T13:56:06;25.50;61.00
38464;DHT22;24243;51.956;5.902;2023-09-18T13:58:32;25.50;60.90
38464;DHT22;24243;51.956;5.902;2023-09-18T14:00:59;25.50;60.90
38464;DHT22;24243;51.956;5.902;2023-09-18T14:03:24;25.50;60.80
38464;DHT22;24243;51.956;5.902;2023-09-18T14:05:50;25.50;60.70
38464;DHT22;24243;51.956;5.902;2023-09-18T14:08:16;25.50;60.70
38464;DHT22;24243;51.956;5.902;2023-09-18T14:10:43;25.50;60.60
38464;DHT22;24243;51.956;5.902;2023-09-18T14:13:09;25.50;60.50
38464;DHT22;24243;51.956;5.902;2023-09-18T14:15:34;25.50;60.40
38464;DHT22;24243;51.956;5.902;2023-09-18T14:18:00;25.50;60.40
38464;DHT22;24243;51.956;5.902;2023-09-18T14:20:26;25.50;60.30
38464;DHT22;24243;51.956;5.902;2023-09-18T14:22:51;25.40;60.20
38464;DHT22;24243;51.956;5.902;2023-09-18T14:25:17;25.40;60.10
38464;DHT22;24243;51.956;5.902;2023-09-18T14:27:45;25.40;60.00
38464;DHT22;24243;51.956;5.902;2023-09-18T14:30:11;25.50;60.00
38464;DHT22;24243;51.956;5.902;2023-09-18T14:32:38;25.40;59.90
38464;DHT22;24243;51.956;5.902;2023-09-18T14:35:04;25.40;59.90
38464;DHT22;24243;51.956;5.902;2023-09-18T14:37:31;25.40;59.80
38464;DHT22;24243;51.956;5.902;2023-09-18T14:39:56;25.40;59.70
38464;DHT22;24243;51.956;5.902;2023-09-18T14:42:22;25.40;59.60
38464;DHT22;24243;51.956;5.902;2023-09-18T14:44:47;25.40;59.60
38464;DHT22;24243;51.956;5.902;2023-09-18T14:47:13;25.40;59.50
38464;DHT22;24243;51.956;5.902;2023-09-18T14:49:39;25.40;59.40
38464;DHT22;24243;51.956;5.902;2023-09-18T14:52:05;25.40;59.30
38464;DHT22;24243;51.956;5.902;2023-09-18T14:54:30;25.40;59.30
38464;DHT22;24243;51.956;5.902;2023-09-18T14:56:56;25.30;59.10
38464;DHT22;24243;51.956;5.902;2023-09-18T14:59:22;25.40;59.10
38464;DHT22;24243;51.956;5.902;2023-09-18T15:01:47;25.40;59.10
38464;DHT22;24243;51.956;5.902;2023-09-18T15:04:14;25.30;58.90
38464;DHT22;24243;51.956;5.902;2023-09-18T15:06:40;25.40;58.90
38464;DHT22;24243;51.956;5.902;2023-09-18T15:09:06;25.40;58.80
38464;DHT22;24243;51.956;5.902;2023-09-18T15:11:33;25.40;58.80
38464;DHT22;24243;51.956;5.902;2023-09-18T15:14:01;25.40;58.70
38464;DHT22;24243;51.956;5.902;2023-09-18T15:16:26;25.40;58.70
38464;DHT22;24243;51.956;5.902;2023-09-18T15:18:52;25.30;58.50
38464;DHT22;24243;51.956;5.902;2023-09-18T15:21:19;25.40;58.60
38464;DHT22;24243;51.956;5.902;2023-09-18T15:23:45;25.30;58.50
38464;DHT22;24243;51.956;5.902;2023-09-18T15:26:11;25.30;58.40
38464;DHT22;24243;51.956;5.902;2023-09-18T15:28:37;25.30;58.40
38464;DHT22;24243;51.956;5.902;2023-09-18T15:31:02;25.30;58.40
38464;DHT22;24243;51.956;5.902;2023-09-18T15:33:28;25.30;58.30